createdAt,value
2018-12-18T00:01:35.066Z,5.91
2018-12-18T00:04:10.150Z,5.82
2018-12-18T00:06:47.692Z,5.74
2018-12-18T00:09:18.822Z,5.70
2018-12-18T00:11:50.753Z,5.74
2018-12-18T00:14:21.843Z,5.68
2018-12-18T00:16:55.002Z,5.72
2018-12-18T00:19:26.260Z,5.81
2018-12-18T00:21:57.974Z,5.88
2018-12-18T00:24:29.206Z,5.89
2018-12-18T00:27:00.531Z,5.96
2018-12-18T00:29:35.287Z,5.99
2018-12-18T00:32:07.535Z,6.04
2018-12-18T00:34:38.453Z,5.94
2018-12-18T00:37:11.002Z,5.89
2018-12-18T00:39:42.857Z,5.90
2018-12-18T00:42:14.264Z,5.92
2018-12-18T00:44:48.285Z,5.90
2018-12-18T00:47:19.611Z,6.00
2018-12-18T00:49:50.423Z,5.94
2018-12-18T00:52:21.171Z,5.98
2018-12-18T00:54:52.032Z,5.85
2018-12-18T00:57:22.766Z,5.76
2018-12-18T00:59:53.914Z,5.75
2018-12-18T01:02:24.720Z,5.78
2018-12-18T01:04:55.652Z,5.82
2018-12-18T01:07:26.369Z,5.85
2018-12-18T01:09:57.089Z,5.95
2018-12-18T01:12:27.896Z,6.01
2018-12-18T01:14:59.091Z,6.11
2018-12-18T01:17:29.783Z,6.14
2018-12-18T01:20:03.367Z,6.25
2018-12-18T01:22:34.405Z,6.11
2018-12-18T01:25:08.673Z,6.14
2018-12-18T01:27:39.644Z,6.23
2018-12-18T01:30:10.422Z,6.13
2018-12-18T01:32:41.156Z,6.12
2018-12-18T01:35:12.025Z,5.95
2018-12-18T01:37:42.786Z,6.01
2018-12-18T01:40:14.081Z,5.96
2018-12-18T01:42:44.849Z,5.99
2018-12-18T01:45:16.855Z,6.03
2018-12-18T01:47:49.914Z,6.16
2018-12-18T01:50:33.160Z,6.14
2018-12-18T01:53:05.344Z,6.21
2018-12-18T01:55:37.371Z,6.42
2018-12-18T01:58:07.982Z,6.54
2018-12-18T02:00:38.670Z,6.66
2018-12-18T02:03:09.547Z,6.74
2018-12-18T02:05:46.757Z,6.72
2018-12-18T02:08:17.474Z,6.80
2018-12-18T02:10:48.103Z,6.82
2018-12-18T02:13:18.825Z,6.91
2018-12-18T02:15:49.527Z,7.03
2018-12-18T02:18:20.211Z,7.02
2018-12-18T02:20:50.943Z,6.99
2018-12-18T02:23:21.767Z,7.13
2018-12-18T02:25:52.418Z,7.14
2018-12-18T02:28:23.190Z,7.15
2018-12-18T02:30:53.855Z,7.19
2018-12-18T02:33:24.555Z,7.18
2018-12-18T02:35:55.526Z,7.43
2018-12-18T02:38:26.265Z,7.59
2018-12-18T02:40:56.923Z,7.79
2018-12-18T02:43:27.626Z,7.78
2018-12-18T02:45:58.346Z,7.81
2018-12-18T02:48:29.195Z,7.90
2018-12-18T02:51:00.000Z,7.85
2018-12-18T02:53:30.690Z,7.88
2018-12-18T02:56:05.507Z,7.83
2018-12-18T02:58:36.186Z,7.75
2018-12-18T03:01:07.289Z,7.68
2018-12-18T03:03:38.131Z,7.69
2018-12-18T03:06:08.754Z,7.73
2018-12-18T03:08:39.471Z,7.78
2018-12-18T03:11:12.810Z,7.82
2018-12-18T03:13:43.468Z,7.88
2018-12-18T03:16:14.209Z,7.99
2018-12-18T03:18:44.966Z,7.98
2018-12-18T03:21:16.720Z,7.96
2018-12-18T03:23:47.391Z,7.98
2018-12-18T03:26:18.023Z,7.98
2018-12-18T03:28:48.987Z,7.94
2018-12-18T03:31:19.897Z,7.91
2018-12-18T03:33:50.511Z,7.95
2018-12-18T03:36:21.918Z,7.90
2018-12-18T03:38:52.685Z,7.93
2018-12-18T03:41:23.424Z,7.97
2018-12-18T03:43:54.164Z,7.99
2018-12-18T03:46:24.794Z,8.01
2018-12-18T03:48:55.512Z,8.02
2018-12-18T03:51:27.271Z,8.05
2018-12-18T03:53:58.001Z,7.98
2018-12-18T03:56:28.659Z,7.99
2018-12-18T03:58:59.323Z,7.99
2018-12-18T04:01:30.303Z,8.00
2018-12-18T04:04:01.007Z,7.99
2018-12-18T04:06:34.735Z,8.02
2018-12-18T04:09:07.664Z,8.05
2018-12-18T04:11:42.410Z,8.11
2018-12-18T04:14:14.953Z,8.11
2018-12-18T04:16:45.964Z,8.11
2018-12-18T04:19:16.575Z,8.15
2018-12-18T04:21:47.228Z,8.24
2018-12-18T04:24:17.904Z,8.26
2018-12-18T04:26:48.618Z,8.34
2018-12-18T04:29:19.240Z,8.43
2018-12-18T04:31:51.630Z,8.31
2018-12-18T04:34:22.301Z,8.31
2018-12-18T04:36:53.356Z,8.31
2018-12-18T04:39:24.006Z,8.33
2018-12-18T04:41:54.638Z,8.39
2018-12-18T04:44:25.819Z,8.37
2018-12-18T04:46:56.440Z,8.43
2018-12-18T04:49:27.655Z,8.37
2018-12-18T04:51:58.306Z,8.43
2018-12-18T04:54:31.235Z,8.44
2018-12-18T04:57:04.404Z,8.49
2018-12-18T04:59:35.104Z,8.51
2018-12-18T05:02:06.195Z,8.52
2018-12-18T05:04:37.057Z,8.54
2018-12-18T05:07:07.932Z,8.58
2018-12-18T05:09:38.641Z,8.56
2018-12-18T05:12:11.518Z,8.66
2018-12-18T05:14:42.254Z,8.71
2018-12-18T05:17:12.892Z,8.85
2018-12-18T05:19:43.655Z,9.01
2018-12-18T05:22:14.325Z,8.99
2018-12-18T05:24:45.382Z,9.23
2018-12-18T05:27:16.077Z,9.23
2018-12-18T05:29:46.731Z,9.21
2018-12-18T05:32:17.354Z,9.17
2018-12-18T05:34:48.220Z,9.24
2018-12-18T05:37:18.852Z,9.43
2018-12-18T05:39:49.568Z,9.71
2018-12-18T05:42:21.322Z,10.03
2018-12-18T05:44:51.957Z,10.24
2018-12-18T05:47:22.628Z,10.46
2018-12-18T05:49:53.215Z,10.54
2018-12-18T05:52:24.016Z,10.54
2018-12-18T05:54:54.666Z,10.87
2018-12-18T05:57:25.339Z,10.78
2018-12-18T05:59:56.023Z,10.96
2018-12-18T06:02:26.662Z,11.08
2018-12-18T06:05:02.995Z,11.18
2018-12-18T06:07:30.014Z,11.13
2018-12-18T06:10:00.698Z,11.08
2018-12-18T06:12:31.878Z,11.11
2018-12-18T06:15:03.047Z,11.13
2018-12-18T06:17:34.478Z,11.21
2018-12-18T06:20:05.451Z,11.36
2018-12-18T06:22:36.175Z,11.33
2018-12-18T06:25:07.016Z,11.20
2018-12-18T06:27:37.642Z,11.31
2018-12-18T06:30:08.521Z,11.39
2018-12-18T06:32:39.170Z,11.47
2018-12-18T06:35:10.616Z,11.55
2018-12-18T06:37:41.377Z,11.57
2018-12-18T06:40:12.130Z,11.52
2018-12-18T06:42:42.943Z,11.60
2018-12-18T06:45:13.696Z,11.61
2018-12-18T06:47:46.100Z,11.57
2018-12-18T06:50:16.742Z,11.61
2018-12-18T06:52:49.156Z,11.52
2018-12-18T06:55:20.459Z,11.46
2018-12-18T06:57:51.656Z,11.51
2018-12-18T07:00:22.328Z,11.63
2018-12-18T07:02:52.939Z,11.60
2018-12-18T07:05:23.805Z,11.63
2018-12-18T07:07:57.317Z,11.70
2018-12-18T07:10:27.212Z,11.75
2018-12-18T07:12:57.900Z,11.78
2018-12-18T07:15:30.427Z,11.86
2018-12-18T07:18:01.095Z,11.77
2018-12-18T07:20:33.399Z,11.79
2018-12-18T07:23:05.478Z,11.85
2018-12-18T07:25:36.108Z,11.80
2018-12-18T07:28:07.075Z,11.77
2018-12-18T07:30:37.975Z,11.92
2018-12-18T07:33:08.642Z,11.99
2018-12-18T07:35:39.246Z,12.03
2018-12-18T07:38:09.893Z,12.08
2018-12-18T07:40:40.630Z,12.07
2018-12-18T07:43:11.239Z,11.97
2018-12-18T07:45:41.902Z,12.08
2018-12-18T07:48:12.515Z,11.99
2018-12-18T07:50:43.629Z,12.01
2018-12-18T07:53:14.294Z,11.97
2018-12-18T07:55:44.894Z,12.01
2018-12-18T07:58:16.935Z,12.02
2018-12-18T08:00:54.344Z,12.07
2018-12-18T08:03:26.341Z,11.85
2018-12-18T08:05:56.949Z,11.95
2018-12-18T08:08:29.550Z,12.05
2018-12-18T08:11:00.304Z,12.07
2018-12-18T08:13:35.510Z,12.08
2018-12-18T08:16:06.193Z,12.26
2018-12-18T08:37:47.165Z,12.30
2018-12-18T08:40:18.236Z,12.36
2018-12-18T08:42:48.905Z,12.43
2018-12-18T08:45:19.644Z,12.45
2018-12-18T08:47:50.796Z,12.44
2018-12-18T08:50:22.910Z,12.50
2018-12-18T08:52:54.905Z,12.50
2018-12-18T08:55:25.558Z,12.55
2018-12-18T08:57:56.283Z,12.59
2018-12-18T09:00:26.993Z,12.82
2018-12-18T09:02:58.226Z,12.82
2018-12-18T09:05:28.950Z,13.04
2018-12-18T09:07:59.614Z,13.04
2018-12-18T09:10:30.583Z,13.05
2018-12-18T09:13:03.271Z,13.20
2018-12-18T09:15:38.989Z,12.95
2018-12-18T09:18:11.744Z,12.87
2018-12-18T09:20:42.443Z,12.97
2018-12-18T09:23:13.131Z,13.38
2018-12-18T09:25:43.886Z,13.76
2018-12-18T09:28:14.580Z,13.58
2018-12-18T09:30:45.315Z,13.26
2018-12-18T09:33:15.987Z,13.30
2018-12-18T09:35:49.708Z,13.38
2018-12-18T09:38:24.255Z,13.53
2018-12-18T09:40:59.961Z,13.69
2018-12-18T09:43:35.696Z,13.79
2018-12-18T09:46:08.051Z,13.78
2018-12-18T09:48:38.686Z,13.93
2018-12-18T09:51:09.544Z,13.99
2018-12-18T09:53:41.899Z,14.10
2018-12-18T09:56:51.751Z,14.23
2018-12-18T09:59:25.691Z,14.33
2018-12-18T10:01:56.716Z,14.36
2018-12-18T10:04:27.817Z,14.41
2018-12-18T10:07:00.146Z,14.50
2018-12-18T10:09:35.456Z,14.41
2018-12-18T10:12:08.145Z,14.57
2018-12-18T10:14:41.562Z,14.54
2018-12-18T10:17:13.527Z,14.48
2018-12-18T10:19:45.551Z,14.64
2018-12-18T10:22:16.254Z,14.66
2018-12-18T10:24:46.908Z,14.65
2018-12-18T10:27:17.523Z,14.73
2018-12-18T10:29:48.215Z,14.75
2018-12-18T10:32:18.835Z,14.70
2018-12-18T10:34:49.658Z,14.57
2018-12-18T10:37:20.314Z,14.42
2018-12-18T10:39:51.032Z,14.42
2018-12-18T10:42:21.820Z,14.35
2018-12-18T10:44:52.511Z,14.28
2018-12-18T10:47:23.239Z,14.27
2018-12-18T10:49:54.009Z,14.21
2018-12-18T10:52:24.602Z,14.14
2018-12-18T10:54:55.432Z,13.99
2018-12-18T10:57:26.191Z,13.92
2018-12-18T10:59:56.859Z,13.74
2018-12-18T11:02:27.517Z,13.85
2018-12-18T11:04:58.184Z,13.86
2018-12-18T11:07:28.774Z,13.95
2018-12-18T11:09:59.762Z,14.00
2018-12-18T11:12:36.959Z,14.07
2018-12-18T11:15:09.087Z,14.09
2018-12-18T11:17:39.832Z,14.12
2018-12-18T11:20:10.499Z,14.19
2018-12-18T11:22:41.288Z,14.16
2018-12-18T11:25:12.092Z,14.30
2018-12-18T11:27:42.728Z,14.19
2018-12-18T11:30:13.594Z,14.18
2018-12-18T11:32:44.186Z,14.17
2018-12-18T11:35:14.916Z,14.07
2018-12-18T11:37:45.555Z,14.09
2018-12-18T11:40:16.327Z,14.09
2018-12-18T11:42:46.965Z,14.00
2018-12-18T11:45:17.801Z,13.82
2018-12-18T11:47:48.451Z,13.80
2018-12-18T11:50:19.134Z,13.76
2018-12-18T11:52:49.774Z,13.68
2018-12-18T11:55:20.463Z,13.58
2018-12-18T11:57:51.606Z,13.60
2018-12-18T12:00:22.296Z,13.57
2018-12-18T12:02:53.075Z,13.48
2018-12-18T12:05:25.755Z,13.43
2018-12-18T12:07:56.477Z,13.43
2018-12-18T12:10:27.735Z,13.41
2018-12-18T12:12:58.453Z,13.41
2018-12-18T12:15:29.191Z,13.46
2018-12-18T12:18:00.405Z,13.40
2018-12-18T12:20:35.705Z,13.34
2018-12-18T12:23:07.109Z,13.30
2018-12-18T12:25:38.570Z,13.27
2018-12-18T12:28:09.216Z,13.21
2018-12-18T12:30:39.847Z,13.22
2018-12-18T12:33:10.535Z,13.08
2018-12-18T12:35:41.191Z,13.01
2018-12-18T12:38:12.343Z,12.94
2018-12-18T12:40:44.855Z,12.87
2018-12-18T12:43:15.649Z,12.77
2018-12-18T12:45:46.428Z,12.77
2018-12-18T12:48:18.679Z,12.70
2018-12-18T12:50:49.336Z,12.61
2018-12-18T12:53:20.257Z,12.56
2018-12-18T12:55:51.097Z,12.42
2018-12-18T12:58:21.766Z,12.46
2018-12-18T13:00:53.563Z,12.39
2018-12-18T13:03:24.248Z,12.38
2018-12-18T13:05:54.908Z,12.34
2018-12-18T13:08:25.595Z,12.29
2018-12-18T13:10:56.294Z,12.14
2018-12-18T13:13:26.952Z,12.08
2018-12-18T13:15:58.601Z,11.97
2018-12-18T13:18:29.217Z,11.97
2018-12-18T13:20:59.899Z,11.90
2018-12-18T13:23:30.583Z,11.88
2018-12-18T13:26:03.876Z,11.82
2018-12-18T13:28:35.730Z,11.80
2018-12-18T13:31:08.743Z,11.72
2018-12-18T13:33:39.632Z,11.68
2018-12-18T13:36:10.294Z,11.69
2018-12-18T13:38:41.209Z,11.64
2018-12-18T13:41:11.807Z,11.61
2018-12-18T13:43:42.496Z,11.64
2018-12-18T13:46:15.167Z,11.63
2018-12-18T13:48:45.861Z,11.67
2018-12-18T13:51:17.008Z,11.70
2018-12-18T13:53:47.655Z,11.74
2018-12-18T13:56:18.745Z,11.71
2018-12-18T13:58:49.529Z,11.77
2018-12-18T14:01:20.205Z,11.78
2018-12-18T14:03:50.853Z,11.74
2018-12-18T14:06:21.913Z,11.80
2018-12-18T14:08:52.641Z,11.85
2018-12-18T14:11:23.279Z,11.83
2018-12-18T14:13:53.947Z,11.88
2018-12-18T14:16:24.607Z,11.88
2018-12-18T14:18:55.334Z,11.88
2018-12-18T14:21:26.067Z,11.88
2018-12-18T14:23:57.562Z,11.94
2018-12-18T14:26:28.249Z,12.17
2018-12-18T14:28:58.901Z,12.26
2018-12-18T14:31:29.700Z,12.44
2018-12-18T14:34:00.499Z,12.60
2018-12-18T14:36:31.695Z,12.73
2018-12-18T14:39:06.689Z,12.82
2018-12-18T14:41:39.339Z,12.76
2018-12-18T14:44:09.999Z,12.92
2018-12-18T14:46:40.661Z,12.90
2018-12-18T14:49:11.368Z,12.84
2018-12-18T14:51:42.155Z,12.80
2018-12-18T14:54:13.067Z,12.65
2018-12-18T14:56:43.726Z,12.56
2018-12-18T14:59:14.426Z,12.59
2018-12-18T15:01:45.136Z,12.62
2018-12-18T15:04:16.144Z,12.81
2018-12-18T15:06:47.738Z,12.81
2018-12-18T15:09:18.367Z,13.00
2018-12-18T15:11:49.026Z,12.88
2018-12-18T15:14:19.727Z,13.13
2018-12-18T15:16:50.615Z,13.25
2018-12-18T15:19:21.336Z,13.42
2018-12-18T15:21:52.071Z,13.39
2018-12-18T15:24:23.082Z,13.45
2018-12-18T15:26:53.858Z,13.50
2018-12-18T15:29:24.818Z,13.58
2018-12-18T15:31:55.633Z,13.43
2018-12-18T15:34:27.519Z,13.46
2018-12-18T15:36:58.354Z,13.28
2018-12-18T15:39:29.398Z,13.24
2018-12-18T15:42:01.922Z,13.16
2018-12-18T15:44:34.962Z,13.19
2018-12-18T15:47:05.631Z,13.13
2018-12-18T15:49:36.284Z,13.02
2018-12-18T15:52:07.005Z,12.95
2018-12-18T15:54:38.879Z,13.04
2018-12-18T15:57:09.600Z,12.96
2018-12-18T15:59:40.232Z,12.99
2018-12-18T16:02:10.992Z,13.19
2018-12-18T16:04:41.743Z,13.19
2018-12-18T16:07:16.065Z,13.10
2018-12-18T16:09:45.330Z,13.00
2018-12-18T16:12:16.010Z,12.95
2018-12-18T16:14:46.677Z,12.73
2018-12-18T16:17:17.376Z,12.72
2018-12-18T16:19:48.165Z,12.70
2018-12-18T16:22:18.832Z,12.67
2018-12-18T16:24:49.921Z,12.65
2018-12-18T16:27:21.935Z,12.60
2018-12-18T16:29:52.608Z,12.46
2018-12-18T16:32:24.238Z,12.45
2018-12-18T16:34:54.904Z,12.34
2018-12-18T16:37:25.616Z,12.30
2018-12-18T16:39:56.442Z,12.23
2018-12-18T16:42:27.183Z,12.22
2018-12-18T16:44:57.907Z,12.06
2018-12-18T16:47:28.570Z,11.95
2018-12-18T16:49:59.303Z,12.00
2018-12-18T16:52:29.977Z,11.92
2018-12-18T16:55:03.312Z,11.85
2018-12-18T16:57:33.945Z,11.76
2018-12-18T17:00:05.459Z,11.64
2018-12-18T17:02:36.266Z,11.53
2018-12-18T17:05:08.495Z,11.40
2018-12-18T17:07:39.432Z,11.36
2018-12-18T17:10:10.265Z,11.22
2018-12-18T17:12:46.158Z,11.17
2018-12-18T17:15:17.901Z,11.04
2018-12-18T17:17:49.249Z,10.97
2018-12-18T17:20:20.611Z,10.97
2018-12-18T17:22:51.328Z,10.97
2018-12-18T17:25:22.118Z,10.93
2018-12-18T17:27:53.015Z,10.86
2018-12-18T17:30:23.990Z,10.81
2018-12-18T17:32:54.673Z,10.87
2018-12-18T17:35:25.847Z,10.94
2018-12-18T17:37:56.508Z,10.82
2018-12-18T17:40:27.122Z,10.78
2018-12-18T17:42:58.295Z,10.77
2018-12-18T17:45:29.011Z,10.73
2018-12-18T17:47:59.748Z,10.79
2018-12-18T17:50:31.036Z,10.82
2018-12-18T17:53:03.881Z,10.75
2018-12-18T17:55:34.847Z,10.77
2018-12-18T17:58:05.692Z,10.77
2018-12-18T18:00:36.342Z,10.74
2018-12-18T18:03:07.041Z,10.70
2018-12-18T18:05:37.727Z,10.68
2018-12-18T18:08:08.388Z,10.69
2018-12-18T18:10:39.102Z,10.67
2018-12-18T18:13:09.721Z,10.55
2018-12-18T18:15:41.108Z,10.43
2018-12-18T18:18:11.772Z,10.33
2018-12-18T18:20:43.225Z,10.29
2018-12-18T18:23:13.928Z,10.23
2018-12-18T18:25:45.623Z,10.35
2018-12-18T18:28:16.330Z,10.32
2018-12-18T18:30:47.399Z,10.26
2018-12-18T18:33:18.051Z,10.16
2018-12-18T18:35:48.743Z,10.10
2018-12-18T18:38:19.529Z,10.05
2018-12-18T18:40:50.159Z,10.01
2018-12-18T18:43:21.267Z,9.97
2018-12-18T18:45:52.043Z,9.92
2018-12-18T18:48:22.679Z,9.86
2018-12-18T18:50:53.879Z,9.85
2018-12-18T18:53:24.951Z,9.83
2018-12-18T18:55:55.609Z,9.81
2018-12-18T18:58:26.367Z,9.83
2018-12-18T19:00:57.344Z,9.87
2018-12-18T19:03:27.986Z,9.92
2018-12-18T19:05:58.871Z,9.94
2018-12-18T19:08:29.509Z,9.93
2018-12-18T19:11:05.376Z,9.93
2018-12-18T19:13:36.248Z,9.85
2018-12-18T19:16:08.095Z,9.84
2018-12-18T19:18:39.203Z,9.70
2018-12-18T19:21:10.025Z,9.66
2018-12-18T19:23:40.819Z,9.63
2018-12-18T19:26:11.595Z,9.69
2018-12-18T19:28:42.756Z,9.68
2018-12-18T19:31:13.466Z,9.69
2018-12-18T19:33:44.590Z,9.70
2018-12-18T19:36:15.330Z,9.70
2018-12-18T19:38:46.000Z,9.76
2018-12-18T19:41:17.126Z,9.77
2018-12-18T19:43:48.255Z,9.83
2018-12-18T19:46:18.929Z,9.91
2018-12-18T19:48:49.540Z,9.92
2018-12-18T19:51:20.308Z,9.96
2018-12-18T19:53:51.010Z,9.89
2018-12-18T19:56:21.776Z,9.92
2018-12-18T19:58:52.423Z,10.00
2018-12-18T20:01:24.657Z,9.98
2018-12-18T20:03:55.359Z,10.05
2018-12-18T20:06:26.217Z,10.09
2018-12-18T20:08:56.988Z,10.24
2018-12-18T20:11:28.274Z,10.13
2018-12-18T20:13:59.036Z,10.01
2018-12-18T20:16:30.854Z,9.93
2018-12-18T20:19:05.338Z,9.85
2018-12-18T20:21:36.080Z,9.77
2018-12-18T20:24:06.881Z,9.76
2018-12-18T20:26:37.508Z,9.73
2018-12-18T20:29:08.234Z,9.68
2018-12-18T20:31:39.355Z,9.63
2018-12-18T20:34:10.111Z,9.57
2018-12-18T20:36:41.126Z,9.49
2018-12-18T20:39:11.922Z,9.45
2018-12-18T20:41:42.613Z,9.38
2018-12-18T20:44:13.250Z,9.23
2018-12-18T20:46:44.615Z,9.33
2018-12-18T20:49:15.672Z,9.30
2018-12-18T20:51:46.466Z,9.30
2018-12-18T20:54:17.300Z,9.19
2018-12-18T20:56:48.018Z,9.19
2018-12-18T20:59:18.888Z,9.17
2018-12-18T21:01:49.626Z,9.17
2018-12-18T21:04:20.406Z,9.12
2018-12-18T21:06:52.985Z,9.04
2018-12-18T21:09:23.988Z,9.00
2018-12-18T21:11:54.639Z,8.96
2018-12-18T21:14:25.438Z,8.95
2018-12-18T21:16:56.371Z,8.90
2018-12-18T21:19:27.283Z,8.87
2018-12-18T21:21:58.228Z,8.79
2018-12-18T21:24:29.315Z,8.76
2018-12-18T21:27:04.138Z,8.71
2018-12-18T21:29:35.383Z,8.70
2018-12-18T21:32:08.449Z,8.69
2018-12-18T21:34:39.525Z,8.67
2018-12-18T21:37:10.903Z,8.61
2018-12-18T21:39:43.925Z,8.51
2018-12-18T21:42:14.888Z,8.41
2018-12-18T21:44:46.443Z,8.30
2018-12-18T21:47:17.522Z,8.22
2018-12-18T21:49:48.382Z,8.16
2018-12-18T21:52:19.577Z,8.07
2018-12-18T21:54:50.341Z,8.01
2018-12-18T21:57:21.127Z,8.01
2018-12-18T21:59:52.479Z,8.05
2018-12-18T22:02:23.190Z,8.12
2018-12-18T22:04:54.538Z,8.07
2018-12-18T22:07:25.251Z,8.17
2018-12-18T22:09:56.063Z,8.16
2018-12-18T22:12:26.742Z,8.25
2018-12-18T22:14:57.407Z,8.25
2018-12-18T22:17:28.783Z,8.30
2018-12-18T22:19:59.503Z,8.33
2018-12-18T22:22:30.192Z,8.29
2018-12-18T22:25:02.379Z,8.36
2018-12-18T22:27:33.157Z,8.46
2018-12-18T22:30:08.955Z,8.47
2018-12-18T22:32:40.226Z,8.51
2018-12-18T22:35:11.022Z,8.47
2018-12-18T22:37:41.736Z,8.50
2018-12-18T22:40:12.457Z,8.33
2018-12-18T22:42:43.152Z,8.30
2018-12-18T22:45:14.667Z,8.18
2018-12-18T22:47:45.942Z,8.01
2018-12-18T22:50:21.336Z,8.01
2018-12-18T22:52:55.416Z,7.82
2018-12-18T22:55:26.222Z,7.79
2018-12-18T22:57:56.893Z,7.81
2018-12-18T23:00:32.938Z,7.82
2018-12-18T23:03:07.184Z,7.80
2018-12-18T23:05:37.868Z,7.85
2018-12-18T23:08:08.597Z,7.78
2018-12-18T23:10:39.398Z,7.73
2018-12-18T23:13:12.130Z,7.88
2018-12-18T23:15:42.881Z,7.86
2018-12-18T23:18:13.552Z,7.95
2018-12-18T23:20:44.348Z,7.95
2018-12-18T23:23:15.513Z,7.97
2018-12-18T23:25:46.244Z,8.01
2018-12-18T23:28:17.527Z,8.03
2018-12-18T23:30:51.413Z,7.98
2018-12-18T23:33:22.971Z,7.91
2018-12-18T23:35:54.204Z,7.82
2018-12-18T23:38:25.062Z,7.82
2018-12-18T23:40:55.808Z,7.71
2018-12-18T23:43:26.484Z,7.72
2018-12-18T23:45:57.567Z,7.76
2018-12-18T23:48:28.271Z,7.79
2018-12-18T23:50:58.932Z,7.77
2018-12-18T23:53:29.980Z,7.77
2018-12-18T23:56:04.283Z,7.63
2018-12-18T23:58:35.013Z,7.59
